Skip to content
You are here: Gozo Weather
Gozo Weather Station for the very latest live weather conditions from Gozo and Malta
 
 TIME   TEMPERATURE   WINDSPEED   DIRECTION   HUMIDITY   BAROMETER   RAINFALL 
10:20 14.3°C (57.7°F) 0.0 kmh (0.0 mph) WSW 63% 1015.0hPa (29.97 inHg) 0.0mm (0.00 in.)
9:20 14.5°C (58.1 °F) 11.1 kmh (6.9 mph) WNW 63% 1015.0hPa (29.97 inHg) 0.0mm (0.00 in.)
8:20 14.4°C (57.9 °F) 11.1 kmh (6.9 mph) WNW 61% 1015.0hPa (29.97 inHg) 0.0mm (0.00 in.)
7:20 14.4°C (57.9 °F) 16.7 kmh (10.4 mph) WNW 60% 1014.0hPa (29.94 inHg) 0.0mm (0.00 in.)
6:20 14.6°C (58.3 °F) 18.5 kmh (11.5 mph) WNW 58% 1014.0hPa (29.94 inHg) 0.0mm (0.00 in.)
5:20 14.9°C (58.8 °F) 11.1 kmh (6.9 mph) WNW 56% 1014.0hPa (29.94 inHg) 0.0mm (0.00 in.)
4:20 16.4°C (61.5 °F) 11.1 kmh (6.9 mph) W 54% 1013.0hPa (29.91 inHg) 0.0mm (0.00 in.)
3:20 16.6°C (61.9 °F) 16.7 kmh (10.4 mph) W 53% 1013.0hPa (29.91 inHg) 0.0mm (0.00 in.)
2:20 16.8°C (62.2 °F) 13.0 kmh (8.1 mph) WNW 52% 1013.0hPa (29.91 inHg) 0.0mm (0.00 in.)
1:20 17.1°C (62.8 °F) 18.5 kmh (11.5 mph) NW 52% 1013.0hPa (29.91 inHg) 0.0mm (0.00 in.)
12:20 16.8°C (62.2 °F) 18.5 kmh (11.5 mph) WNW 53% 1013.0hPa (29.91 inHg) 0.0mm (0.00 in.)
11:13 16.8°C (62.2 °F) 20.4 kmh (12.7 mph) WNW 56% 1014.0hPa (29.94 inHg) 0.0mm (0.00 in.)
10:13 15.8°C (60.4 °F) 22.2 kmh (13.8 mph) WNW 58% 1014.0hPa (29.94 inHg) 0.0mm (0.00 in.)
9:13 15.3°C (59.5 °F) 14.8 kmh (9.2 mph) WNW 60% 1014.0hPa (29.94 inHg) 0.0mm (0.00 in.)
8:13 14.4°C (57.9 °F) 14.8 kmh (9.2 mph) WNW 58% 1013.0hPa (29.91 inHg) 0.0mm (0.00 in.)
7:13 14.7°C (58.5 °F) 13.0 kmh (8.1 mph) WNW 56% 1013.0hPa (29.91 inHg) 0.0mm (0.00 in.)
6:13 14.6°C (58.3 °F) 16.7 kmh (10.4 mph) W 53% 1012.0hPa (29.88 inHg) 0.0mm (0.00 in.)
5:13 14.7°C (58.5 °F) 18.5 kmh (11.5 mph) W 52% 1012.0hPa (29.88 inHg) 0.0mm (0.00 in.)
4:13 14.8°C (58.6 °F) 14.8 kmh (9.2 mph) WNW 53% 1012.0hPa (29.88 inHg) 0.0mm (0.00 in.)
3:13 15.0°C (59.0 °F) 22.2 kmh (13.8 mph) WNW 59% 1012.0hPa (29.88 inHg) 0.0mm (0.00 in.)
2:13 14.9°C (58.8 °F) 22.2 kmh (13.8 mph) W 60% 1012.0hPa (29.88 inHg) 0.0mm (0.00 in.)
1:13 14.8°C (58.6 °F) 18.5 kmh (11.5 mph) W 62% 1013.0hPa (29.91 inHg) 0.0mm (0.00 in.)
12:13 14.8°C (58.6 °F) 18.5 kmh (11.5 mph) WNW 61% 1013.0hPa (29.91 inHg) 0.0mm (0.00 in.)
11:13 14.7°C (58.5 °F) 11.1 kmh (6.9 mph) W 61% 1013.0hPa (29.91 inHg) 0.0mm (0.00 in.)

You need the latest version of Flash Player to view some of our content.


Why not download and install the latest version now?
It will only take you a moment and will ensure that you can view all the latest flash designed websites.

Translate this page

Animated Satellite

Click per aprire http://www.gozo.ws/Animation.php
copyright 2014 EUMETSAT

European Lightning Activity


Please click image for full size

Sponsored Links